sensor_id;sensor_type;location;lat;lon;timestamp;temperature;humidity
39585;DHT22;25278;53.674;10.014;2022-07-18T03:32:22;14.10;99.90
39585;DHT22;25278;53.674;10.014;2022-07-18T03:34:47;14.20;99.90
39585;DHT22;25278;53.674;10.014;2022-07-18T03:37:13;14.10;99.90
39585;DHT22;25278;53.674;10.014;2022-07-18T03:39:38;14.10;99.90
39585;DHT22;25278;53.674;10.014;2022-07-18T03:42:03;14.10;99.90
39585;DHT22;25278;53.674;10.014;2022-07-18T03:44:29;14.10;99.90
39585;DHT22;25278;53.674;10.014;2022-07-18T03:46:54;14.10;99.90
39585;DHT22;25278;53.674;10.014;2022-07-18T03:49:20;14.10;99.90
39585;DHT22;25278;53.674;10.014;2022-07-18T03:51:46;14.10;99.90
39585;DHT22;25278;53.674;10.014;2022-07-18T03:54:11;14.30;99.90
39585;DHT22;25278;53.674;10.014;2022-07-18T03:56:37;14.30;99.90
39585;DHT22;25278;53.674;10.014;2022-07-18T03:59:02;14.40;99.90
39585;DHT22;25278;53.674;10.014;2022-07-18T04:01:28;14.40;99.90
39585;DHT22;25278;53.674;10.014;2022-07-18T04:03:53;14.40;99.90
39585;DHT22;25278;53.674;10.014;2022-07-18T04:06:19;14.40;99.90
39585;DHT22;25278;53.674;10.014;2022-07-18T04:08:44;14.50;99.90
39585;DHT22;25278;53.674;10.014;2022-07-18T04:11:10;14.50;99.90
39585;DHT22;25278;53.674;10.014;2022-07-18T04:13:36;14.50;99.90
39585;DHT22;25278;53.674;10.014;2022-07-18T04:16:01;14.50;99.90
39585;DHT22;25278;53.674;10.014;2022-07-18T04:18:27;14.60;99.90
39585;DHT22;25278;53.674;10.014;2022-07-18T04:20:52;14.70;99.90
39585;DHT22;25278;53.674;10.014;2022-07-18T04:23:18;14.70;99.90
39585;DHT22;25278;53.674;10.014;2022-07-18T04:25:44;14.70;99.90
39585;DHT22;25278;53.674;10.014;2022-07-18T04:28:10;14.70;99.90
39585;DHT22;25278;53.674;10.014;2022-07-18T04:30:36;14.70;99.90
39585;DHT22;25278;53.674;10.014;2022-07-18T04:33:03;14.70;99.90
39585;DHT22;25278;53.674;10.014;2022-07-18T04:35:29;14.70;99.90
39585;DHT22;25278;53.674;10.014;2022-07-18T04:37:54;14.80;99.90
39585;DHT22;25278;53.674;10.014;2022-07-18T04:40:20;14.90;99.90
39585;DHT22;25278;53.674;10.014;2022-07-18T04:42:46;14.90;99.90
39585;DHT22;25278;53.674;10.014;2022-07-18T04:45:11;14.90;99.90
39585;DHT22;25278;53.674;10.014;2022-07-18T04:47:37;15.00;99.90
39585;DHT22;25278;53.674;10.014;2022-07-18T04:50:03;15.00;99.90
39585;DHT22;25278;53.674;10.014;2022-07-18T04:52:36;15.20;99.90
39585;DHT22;25278;53.674;10.014;2022-07-18T04:55:02;15.30;99.90
39585;DHT22;25278;53.674;10.014;2022-07-18T04:57:27;15.40;99.90
39585;DHT22;25278;53.674;10.014;2022-07-18T04:59:53;15.50;99.90
39585;DHT22;25278;53.674;10.014;2022-07-18T05:02:18;15.60;99.90
39585;DHT22;25278;53.674;10.014;2022-07-18T05:04:44;15.70;99.90
39585;DHT22;25278;53.674;10.014;2022-07-18T05:07:09;16.00;99.90
39585;DHT22;25278;53.674;10.014;2022-07-18T05:09:34;16.00;99.90
39585;DHT22;25278;53.674;10.014;2022-07-18T05:12:00;16.20;99.90
39585;DHT22;25278;53.674;10.014;2022-07-18T06:22:30;16.30;99.90
39585;DHT22;25278;53.674;10.014;2022-07-18T06:24:56;17.90;99.90
39585;DHT22;25278;53.674;10.014;2022-07-18T06:27:21;17.90;99.90
39585;DHT22;25278;53.674;10.014;2022-07-18T06:29:47;18.00;99.90
39585;DHT22;25278;53.674;10.014;2022-07-18T06:32:12;18.20;99.90
39585;DHT22;25278;53.674;10.014;2022-07-18T06:34:38;18.30;99.90
39585;DHT22;25278;53.674;10.014;2022-07-18T06:37:03;18.50;99.90
39585;DHT22;25278;53.674;10.014;2022-07-18T06:39:29;18.70;99.90
39585;DHT22;25278;53.674;10.014;2022-07-18T06:41:54;18.70;99.90
39585;DHT22;25278;53.674;10.014;2022-07-18T06:44:20;18.80;99.90
39585;DHT22;25278;53.674;10.014;2022-07-18T06:46:45;18.80;99.90
39585;DHT22;25278;53.674;10.014;2022-07-18T06:49:11;18.70;99.90
39585;DHT22;25278;53.674;10.014;2022-07-18T06:51:36;18.70;99.90
39585;DHT22;25278;53.674;10.014;2022-07-18T06:54:02;18.90;99.90
39585;DHT22;25278;53.674;10.014;2022-07-18T06:56:27;19.10;99.90
39585;DHT22;25278;53.674;10.014;2022-07-18T06:58:53;19.30;99.90
39585;DHT22;25278;53.674;10.014;2022-07-18T07:01:19;19.30;99.90
39585;DHT22;25278;53.674;10.014;2022-07-18T07:03:45;19.30;99.90
39585;DHT22;25278;53.674;10.014;2022-07-18T07:06:10;19.20;99.90
39585;DHT22;25278;53.674;10.014;2022-07-18T07:23:12;19.40;99.90
39585;DHT22;25278;53.674;10.014;2022-07-18T07:28:04;20.90;99.90
39585;DHT22;25278;53.674;10.014;2022-07-18T07:30:30;21.20;99.90
39585;DHT22;25278;53.674;10.014;2022-07-18T07:32:55;21.20;99.90
39585;DHT22;25278;53.674;10.014;2022-07-18T07:35:21;21.50;99.90
39585;DHT22;25278;53.674;10.014;2022-07-18T07:37:48;21.70;99.90
39585;DHT22;25278;53.674;10.014;2022-07-18T07:40:14;21.80;99.90
39585;DHT22;25278;53.674;10.014;2022-07-18T07:42:40;21.70;99.90
39585;DHT22;25278;53.674;10.014;2022-07-18T07:45:06;21.80;99.90
39585;DHT22;25278;53.674;10.014;2022-07-18T07:47:32;21.90;99.90
39585;DHT22;25278;53.674;10.014;2022-07-18T07:49:58;22.10;99.90
39585;DHT22;25278;53.674;10.014;2022-07-18T07:52:24;22.00;99.90
39585;DHT22;25278;53.674;10.014;2022-07-18T07:54:50;22.20;99.90
39585;DHT22;25278;53.674;10.014;2022-07-18T07:57:15;22.30;99.90
39585;DHT22;25278;53.674;10.014;2022-07-18T07:59:41;22.00;99.90
39585;DHT22;25278;53.674;10.014;2022-07-18T08:02:06;21.90;99.90
39585;DHT22;25278;53.674;10.014;2022-07-18T08:04:32;22.10;99.90
39585;DHT22;25278;53.674;10.014;2022-07-18T08:06:57;22.10;99.90
39585;DHT22;25278;53.674;10.014;2022-07-18T08:09:22;22.30;99.90
39585;DHT22;25278;53.674;10.014;2022-07-18T08:11:48;22.50;99.90
39585;DHT22;25278;53.674;10.014;2022-07-18T08:14:13;22.80;99.90
39585;DHT22;25278;53.674;10.014;2022-07-18T08:16:39;22.90;99.90
39585;DHT22;25278;53.674;10.014;2022-07-18T08:19:05;23.30;99.90
39585;DHT22;25278;53.674;10.014;2022-07-18T08:21:30;23.60;99.90
39585;DHT22;25278;53.674;10.014;2022-07-18T08:23:56;23.80;99.90
39585;DHT22;25278;53.674;10.014;2022-07-18T08:26:21;23.80;99.90
39585;DHT22;25278;53.674;10.014;2022-07-18T08:28:47;23.90;99.90
39585;DHT22;25278;53.674;10.014;2022-07-18T08:31:13;23.50;99.90
39585;DHT22;25278;53.674;10.014;2022-07-18T08:33:38;23.60;99.90
39585;DHT22;25278;53.674;10.014;2022-07-18T08:36:04;23.80;99.90
39585;DHT22;25278;53.674;10.014;2022-07-18T08:38:29;23.90;99.90
39585;DHT22;25278;53.674;10.014;2022-07-18T08:40:55;24.00;99.90
39585;DHT22;25278;53.674;10.014;2022-07-18T08:43:21;24.00;99.90
39585;DHT22;25278;53.674;10.014;2022-07-18T08:45:49;23.90;99.90
39585;DHT22;25278;53.674;10.014;2022-07-18T08:48:16;23.90;99.90
39585;DHT22;25278;53.674;10.014;2022-07-18T08:50:43;24.00;99.90
39585;DHT22;25278;53.674;10.014;2022-07-18T08:53:09;24.20;99.90
39585;DHT22;25278;53.674;10.014;2022-07-18T08:55:35;24.20;99.90
39585;DHT22;25278;53.674;10.014;2022-07-18T08:58:01;24.10;99.90
39585;DHT22;25278;53.674;10.014;2022-07-18T09:00:26;23.90;99.90
39585;DHT22;25278;53.674;10.014;2022-07-18T09:02:59;24.10;99.90
39585;DHT22;25278;53.674;10.014;2022-07-18T09:05:24;24.20;99.90
39585;DHT22;25278;53.674;10.014;2022-07-18T09:10:16;24.30;99.90
39585;DHT22;25278;53.674;10.014;2022-07-18T09:20:10;24.90;99.90
39585;DHT22;25278;53.674;10.014;2022-07-18T09:22:37;25.40;99.90
39585;DHT22;25278;53.674;10.014;2022-07-18T09:25:13;25.60;99.90
39585;DHT22;25278;53.674;10.014;2022-07-18T09:27:45;25.50;99.90
39585;DHT22;25278;53.674;10.014;2022-07-18T09:32:51;25.10;99.90
39585;DHT22;25278;53.674;10.014;2022-07-18T09:35:21;25.20;99.90
39585;DHT22;25278;53.674;10.014;2022-07-18T09:37:54;25.40;99.90
39585;DHT22;25278;53.674;10.014;2022-07-18T09:40:22;25.70;99.90
39585;DHT22;25278;53.674;10.014;2022-07-18T09:42:51;25.70;99.90
39585;DHT22;25278;53.674;10.014;2022-07-18T09:45:24;25.70;99.90
39585;DHT22;25278;53.674;10.014;2022-07-18T09:50:35;25.70;99.90
39585;DHT22;25278;53.674;10.014;2022-07-18T09:53:08;25.80;99.90
39585;DHT22;25278;53.674;10.014;2022-07-18T09:55:34;25.40;99.90
39585;DHT22;25278;53.674;10.014;2022-07-18T09:58:04;25.80;99.90
39585;DHT22;25278;53.674;10.014;2022-07-18T10:00:30;25.80;99.90
39585;DHT22;25278;53.674;10.014;2022-07-18T10:02:57;25.90;99.90
39585;DHT22;25278;53.674;10.014;2022-07-18T10:05:27;25.80;99.90
39585;DHT22;25278;53.674;10.014;2022-07-18T10:07:53;25.80;99.90
39585;DHT22;25278;53.674;10.014;2022-07-18T10:10:19;26.10;99.90
39585;DHT22;25278;53.674;10.014;2022-07-18T10:12:45;26.50;99.90
39585;DHT22;25278;53.674;10.014;2022-07-18T10:15:10;26.60;99.90
39585;DHT22;25278;53.674;10.014;2022-07-18T10:17:36;26.70;99.90
39585;DHT22;25278;53.674;10.014;2022-07-18T10:20:05;26.70;99.90
39585;DHT22;25278;53.674;10.014;2022-07-18T10:22:35;26.80;99.90
39585;DHT22;25278;53.674;10.014;2022-07-18T10:25:04;26.70;99.90
39585;DHT22;25278;53.674;10.014;2022-07-18T10:27:46;26.30;99.90
39585;DHT22;25278;53.674;10.014;2022-07-18T10:30:13;26.60;99.90
39585;DHT22;25278;53.674;10.014;2022-07-18T10:32:39;27.30;99.90
39585;DHT22;25278;53.674;10.014;2022-07-18T10:35:05;27.10;99.90
39585;DHT22;25278;53.674;10.014;2022-07-18T10:37:36;27.10;99.90
39585;DHT22;25278;53.674;10.014;2022-07-18T10:40:21;27.00;99.90
39585;DHT22;25278;53.674;10.014;2022-07-18T10:43:07;27.20;99.90
39585;DHT22;25278;53.674;10.014;2022-07-18T10:45:42;27.30;99.90
39585;DHT22;25278;53.674;10.014;2022-07-18T10:50:59;27.20;99.90
39585;DHT22;25278;53.674;10.014;2022-07-18T10:53:25;27.50;99.90
39585;DHT22;25278;53.674;10.014;2022-07-18T10:56:10;27.70;99.90
39585;DHT22;25278;53.674;10.014;2022-07-18T10:58:38;27.80;99.90
39585;DHT22;25278;53.674;10.014;2022-07-18T11:01:04;27.90;99.90
39585;DHT22;25278;53.674;10.014;2022-07-18T11:03:31;28.10;99.90
39585;DHT22;25278;53.674;10.014;2022-07-18T11:05:57;28.00;99.90
39585;DHT22;25278;53.674;10.014;2022-07-18T11:08:23;28.10;99.90
39585;DHT22;25278;53.674;10.014;2022-07-18T11:15:54;27.60;99.90
39585;DHT22;25278;53.674;10.014;2022-07-18T11:18:21;27.20;99.90
39585;DHT22;25278;53.674;10.014;2022-07-18T11:20:46;27.20;99.90
39585;DHT22;25278;53.674;10.014;2022-07-18T11:23:14;27.50;99.90
39585;DHT22;25278;53.674;10.014;2022-07-18T11:25:40;27.80;99.10
39585;DHT22;25278;53.674;10.014;2022-07-18T11:28:09;27.90;98.80
39585;DHT22;25278;53.674;10.014;2022-07-18T11:30:34;28.00;98.20
39585;DHT22;25278;53.674;10.014;2022-07-18T11:33:00;28.10;98.20
39585;DHT22;25278;53.674;10.014;2022-07-18T11:35:26;27.90;98.00
39585;DHT22;25278;53.674;10.014;2022-07-18T11:37:52;28.00;98.30
39585;DHT22;25278;53.674;10.014;2022-07-18T11:40:17;27.90;98.30
39585;DHT22;25278;53.674;10.014;2022-07-18T11:42:43;28.00;98.10
39585;DHT22;25278;53.674;10.014;2022-07-18T11:45:10;28.20;98.60
39585;DHT22;25278;53.674;10.014;2022-07-18T11:47:39;28.40;98.00
39585;DHT22;25278;53.674;10.014;2022-07-18T11:50:10;28.30;97.30
39585;DHT22;25278;53.674;10.014;2022-07-18T11:55:31;28.80;98.30
39585;DHT22;25278;53.674;10.014;2022-07-18T12:00:39;28.90;96.20
39585;DHT22;25278;53.674;10.014;2022-07-18T12:03:44;29.00;94.40
39585;DHT22;25278;53.674;10.014;2022-07-18T12:06:22;28.70;94.80
39585;DHT22;25278;53.674;10.014;2022-07-18T12:09:08;28.70;94.50
39585;DHT22;25278;53.674;10.014;2022-07-18T12:11:37;28.60;93.40
39585;DHT22;25278;53.674;10.014;2022-07-18T12:16:35;28.50;93.30
39585;DHT22;25278;53.674;10.014;2022-07-18T12:19:04;28.30;93.70
39585;DHT22;25278;53.674;10.014;2022-07-18T12:26:46;28.50;93.90
39585;DHT22;25278;53.674;10.014;2022-07-18T12:29:12;28.90;93.80
39585;DHT22;25278;53.674;10.014;2022-07-18T12:34:14;29.00;93.30
39585;DHT22;25278;53.674;10.014;2022-07-18T12:36:52;28.80;93.40
39585;DHT22;25278;53.674;10.014;2022-07-18T12:39:32;29.10;93.30
39585;DHT22;25278;53.674;10.014;2022-07-18T12:41:57;29.60;93.10
39585;DHT22;25278;53.674;10.014;2022-07-18T12:44:26;29.60;92.90
39585;DHT22;25278;53.674;10.014;2022-07-18T12:46:52;29.70;92.30
39585;DHT22;25278;53.674;10.014;2022-07-18T12:49:18;29.70;93.40
39585;DHT22;25278;53.674;10.014;2022-07-18T12:51:43;30.20;92.40
39585;DHT22;25278;53.674;10.014;2022-07-18T12:54:09;29.70;92.00
39585;DHT22;25278;53.674;10.014;2022-07-18T12:56:34;29.90;93.00
39585;DHT22;25278;53.674;10.014;2022-07-18T13:01:26;30.40;92.30
39585;DHT22;25278;53.674;10.014;2022-07-18T13:03:51;31.70;90.90
39585;DHT22;25278;53.674;10.014;2022-07-18T13:06:17;31.30;90.80
39585;DHT22;25278;53.674;10.014;2022-07-18T13:08:42;31.10;89.60
39585;DHT22;25278;53.674;10.014;2022-07-18T13:11:08;31.20;90.60
39585;DHT22;25278;53.674;10.014;2022-07-18T13:13:34;31.20;89.40
39585;DHT22;25278;53.674;10.014;2022-07-18T13:15:59;30.90;89.70
39585;DHT22;25278;53.674;10.014;2022-07-18T13:18:24;31.20;89.50
39585;DHT22;25278;53.674;10.014;2022-07-18T13:20:50;31.40;89.80
39585;DHT22;25278;53.674;10.014;2022-07-18T13:23:15;31.00;88.70
39585;DHT22;25278;53.674;10.014;2022-07-18T13:45:09;30.70;89.20
39585;DHT22;25278;53.674;10.014;2022-07-18T13:47:34;29.30;90.20
39585;DHT22;25278;53.674;10.014;2022-07-18T13:59:45;29.30;89.10
39585;DHT22;25278;53.674;10.014;2022-07-18T14:02:14;30.80;86.00
39585;DHT22;25278;53.674;10.014;2022-07-18T14:04:42;30.90;86.50
39585;DHT22;25278;53.674;10.014;2022-07-18T14:09:37;31.50;86.30
39585;DHT22;25278;53.674;10.014;2022-07-18T14:12:03;31.80;83.60
39585;DHT22;25278;53.674;10.014;2022-07-18T14:14:29;32.10;83.90
39585;DHT22;25278;53.674;10.014;2022-07-18T14:19:22;32.80;83.20
39585;DHT22;25278;53.674;10.014;2022-07-18T14:21:52;35.30;78.60
39585;DHT22;25278;53.674;10.014;2022-07-18T14:24:26;36.00;74.60
39585;DHT22;25278;53.674;10.014;2022-07-18T14:26:53;35.90;72.70
39585;DHT22;25278;53.674;10.014;2022-07-18T14:29:19;36.10;71.30
39585;DHT22;25278;53.674;10.014;2022-07-18T14:31:45;35.50;70.80
39585;DHT22;25278;53.674;10.014;2022-07-18T14:34:12;35.40;70.80
39585;DHT22;25278;53.674;10.014;2022-07-18T14:36:39;34.60;69.80
39585;DHT22;25278;53.674;10.014;2022-07-18T14:39:04;33.20;71.10
39585;DHT22;25278;53.674;10.014;2022-07-18T14:44:11;32.10;72.30
39585;DHT22;25278;53.674;10.014;2022-07-18T14:46:37;31.00;75.40
39585;DHT22;25278;53.674;10.014;2022-07-18T14:49:23;31.30;76.00
39585;DHT22;25278;53.674;10.014;2022-07-18T14:51:52;32.60;75.50
39585;DHT22;25278;53.674;10.014;2022-07-18T14:54:20;33.40;74.00
39585;DHT22;25278;53.674;10.014;2022-07-18T14:56:45;33.40;74.30
39585;DHT22;25278;53.674;10.014;2022-07-18T14:59:11;33.60;74.30
39585;DHT22;25278;53.674;10.014;2022-07-18T15:01:38;33.80;73.40
39585;DHT22;25278;53.674;10.014;2022-07-18T15:04:05;34.20;72.50
39585;DHT22;25278;53.674;10.014;2022-07-18T15:06:34;34.60;71.60
39585;DHT22;25278;53.674;10.014;2022-07-18T15:09:11;34.90;70.60
39585;DHT22;25278;53.674;10.014;2022-07-18T15:11:56;36.00;70.60
39585;DHT22;25278;53.674;10.014;2022-07-18T15:14:29;38.10;68.00
39585;DHT22;25278;53.674;10.014;2022-07-18T15:16:55;39.20;65.20
39585;DHT22;25278;53.674;10.014;2022-07-18T15:19:21;40.30;63.60
39585;DHT22;25278;53.674;10.014;2022-07-18T15:21:47;40.30;60.70
39585;DHT22;25278;53.674;10.014;2022-07-18T15:24:16;39.70;60.40
39585;DHT22;25278;53.674;10.014;2022-07-18T15:26:53;39.40;59.70
39585;DHT22;25278;53.674;10.014;2022-07-18T15:29:51;39.50;58.60
39585;DHT22;25278;53.674;10.014;2022-07-18T15:32:43;40.50;57.20
39585;DHT22;25278;53.674;10.014;2022-07-18T15:35:12;40.10;56.10
39585;DHT22;25278;53.674;10.014;2022-07-18T15:37:39;40.00;56.90
39585;DHT22;25278;53.674;10.014;2022-07-18T15:40:05;40.20;55.10
39585;DHT22;25278;53.674;10.014;2022-07-18T15:42:33;40.20;54.80
39585;DHT22;25278;53.674;10.014;2022-07-18T15:44:58;39.80;55.10
39585;DHT22;25278;53.674;10.014;2022-07-18T15:47:32;40.60;54.30
39585;DHT22;25278;53.674;10.014;2022-07-18T15:49:58;40.50;54.00
39585;DHT22;25278;53.674;10.014;2022-07-18T15:52:23;41.30;53.50
39585;DHT22;25278;53.674;10.014;2022-07-18T15:54:49;41.30;52.90
39585;DHT22;25278;53.674;10.014;2022-07-18T15:57:14;39.00;53.00
39585;DHT22;25278;53.674;10.014;2022-07-18T15:59:40;38.20;54.10
39585;DHT22;25278;53.674;10.014;2022-07-18T16:02:05;38.20;54.30
39585;DHT22;25278;53.674;10.014;2022-07-18T16:04:31;37.20;55.00
39585;DHT22;25278;53.674;10.014;2022-07-18T16:06:58;36.80;55.60
39585;DHT22;25278;53.674;10.014;2022-07-18T16:09:25;36.90;56.50
39585;DHT22;25278;53.674;10.014;2022-07-18T16:11:51;37.50;55.90
39585;DHT22;25278;53.674;10.014;2022-07-18T16:14:17;37.70;55.80
39585;DHT22;25278;53.674;10.014;2022-07-18T16:16:43;37.50;54.90
39585;DHT22;25278;53.674;10.014;2022-07-18T16:19:09;36.70;55.40
39585;DHT22;25278;53.674;10.014;2022-07-18T16:21:34;36.30;54.70
39585;DHT22;25278;53.674;10.014;2022-07-18T16:24:00;35.30;55.90
39585;DHT22;25278;53.674;10.014;2022-07-18T16:26:26;35.50;56.90
39585;DHT22;25278;53.674;10.014;2022-07-18T16:28:51;35.10;56.40
39585;DHT22;25278;53.674;10.014;2022-07-18T16:31:17;34.40;57.30
39585;DHT22;25278;53.674;10.014;2022-07-18T16:33:42;33.90;57.60
39585;DHT22;25278;53.674;10.014;2022-07-18T16:36:08;33.20;58.00
39585;DHT22;25278;53.674;10.014;2022-07-18T16:38:34;32.70;59.10
39585;DHT22;25278;53.674;10.014;2022-07-18T16:40:59;32.80;59.50
39585;DHT22;25278;53.674;10.014;2022-07-18T16:43:25;32.40;59.20
39585;DHT22;25278;53.674;10.014;2022-07-18T16:45:51;32.70;60.80
39585;DHT22;25278;53.674;10.014;2022-07-18T16:48:16;33.70;59.40
39585;DHT22;25278;53.674;10.014;2022-07-18T16:50:43;34.70;57.70
39585;DHT22;25278;53.674;10.014;2022-07-18T16:53:08;36.20;57.40
39585;DHT22;25278;53.674;10.014;2022-07-18T16:58:00;38.20;55.40
39585;DHT22;25278;53.674;10.014;2022-07-18T17:00:25;38.40;54.60
39585;DHT22;25278;53.674;10.014;2022-07-18T17:02:51;38.10;54.00
39585;DHT22;25278;53.674;10.014;2022-07-18T17:05:18;36.70;54.50
39585;DHT22;25278;53.674;10.014;2022-07-18T17:07:47;35.90;55.40
39585;DHT22;25278;53.674;10.014;2022-07-18T17:10:13;35.70;55.80
39585;DHT22;25278;53.674;10.014;2022-07-18T17:12:40;36.10;56.00
39585;DHT22;25278;53.674;10.014;2022-07-18T17:15:05;36.40;56.10
39585;DHT22;25278;53.674;10.014;2022-07-18T17:17:31;36.30;55.80
39585;DHT22;25278;53.674;10.014;2022-07-18T17:19:57;36.00;56.20
39585;DHT22;25278;53.674;10.014;2022-07-18T17:22:22;35.60;56.20
39585;DHT22;25278;53.674;10.014;2022-07-18T17:24:51;35.00;56.50
39585;DHT22;25278;53.674;10.014;2022-07-18T17:27:17;35.00;57.40
39585;DHT22;25278;53.674;10.014;2022-07-18T17:29:42;35.20;56.80
39585;DHT22;25278;53.674;10.014;2022-07-18T17:32:08;35.20;57.20
39585;DHT22;25278;53.674;10.014;2022-07-18T17:34:34;35.60;56.80
39585;DHT22;25278;53.674;10.014;2022-07-18T17:37:01;35.90;57.10
39585;DHT22;25278;53.674;10.014;2022-07-18T17:39:27;35.60;55.80
39585;DHT22;25278;53.674;10.014;2022-07-18T17:41:53;35.60;56.30
39585;DHT22;25278;53.674;10.014;2022-07-18T17:44:19;35.80;56.30
39585;DHT22;25278;53.674;10.014;2022-07-18T17:46:49;36.00;56.40
39585;DHT22;25278;53.674;10.014;2022-07-18T17:49:15;36.10;57.50
39585;DHT22;25278;53.674;10.014;2022-07-18T17:51:41;36.00;56.50
39585;DHT22;25278;53.674;10.014;2022-07-18T17:54:07;35.50;56.00
39585;DHT22;25278;53.674;10.014;2022-07-18T17:56:33;35.30;56.50
39585;DHT22;25278;53.674;10.014;2022-07-18T17:59:00;35.30;56.60
39585;DHT22;25278;53.674;10.014;2022-07-18T18:01:26;35.20;57.20
39585;DHT22;25278;53.674;10.014;2022-07-18T18:03:54;35.40;57.70
39585;DHT22;25278;53.674;10.014;2022-07-18T18:06:22;35.50;58.00
39585;DHT22;25278;53.674;10.014;2022-07-18T18:08:47;34.70;58.70
39585;DHT22;25278;53.674;10.014;2022-07-18T18:11:13;34.00;60.20
39585;DHT22;25278;53.674;10.014;2022-07-18T18:13:38;33.50;61.30
39585;DHT22;25278;53.674;10.014;2022-07-18T18:16:04;32.70;62.40
39585;DHT22;25278;53.674;10.014;2022-07-18T18:18:29;31.90;63.60
39585;DHT22;25278;53.674;10.014;2022-07-18T18:20:55;31.30;66.10
39585;DHT22;25278;53.674;10.014;2022-07-18T18:23:21;30.80;67.60
39585;DHT22;25278;53.674;10.014;2022-07-18T18:25:48;30.40;68.40
39585;DHT22;25278;53.674;10.014;2022-07-18T18:28:14;30.00;69.40
39585;DHT22;25278;53.674;10.014;2022-07-18T18:30:40;29.70;70.50
39585;DHT22;25278;53.674;10.014;2022-07-18T18:33:06;29.50;72.40
39585;DHT22;25278;53.674;10.014;2022-07-18T18:35:32;29.20;74.30
39585;DHT22;25278;53.674;10.014;2022-07-18T18:37:57;29.00;74.50
39585;DHT22;25278;53.674;10.014;2022-07-18T18:40:23;28.70;75.20
39585;DHT22;25278;53.674;10.014;2022-07-18T18:42:48;28.50;76.50
39585;DHT22;25278;53.674;10.014;2022-07-18T18:45:14;28.30;78.30
39585;DHT22;25278;53.674;10.014;2022-07-18T18:47:39;28.00;77.60
39585;DHT22;25278;53.674;10.014;2022-07-18T18:50:05;27.80;78.80
39585;DHT22;25278;53.674;10.014;2022-07-18T18:52:31;27.50;80.70
39585;DHT22;25278;53.674;10.014;2022-07-18T18:54:57;27.30;81.60
39585;DHT22;25278;53.674;10.014;2022-07-18T18:57:23;27.00;82.20
39585;DHT22;25278;53.674;10.014;2022-07-18T19:02:49;26.50;84.30
39585;DHT22;25278;53.674;10.014;2022-07-18T19:05:15;26.30;85.80
39585;DHT22;25278;53.674;10.014;2022-07-18T19:07:41;26.10;86.40
39585;DHT22;25278;53.674;10.014;2022-07-18T19:10:06;25.90;88.10
39585;DHT22;25278;53.674;10.014;2022-07-18T19:12:32;25.70;90.00
39585;DHT22;25278;53.674;10.014;2022-07-18T19:14:58;25.50;90.40
39585;DHT22;25278;53.674;10.014;2022-07-18T19:17:24;25.30;91.40
39585;DHT22;25278;53.674;10.014;2022-07-18T19:19:51;25.10;92.50
39585;DHT22;25278;53.674;10.014;2022-07-18T19:22:17;24.90;93.10
39585;DHT22;25278;53.674;10.014;2022-07-18T19:24:43;24.70;94.20
39585;DHT22;25278;53.674;10.014;2022-07-18T19:27:09;24.50;95.60
39585;DHT22;25278;53.674;10.014;2022-07-18T19:29:34;24.40;96.80
39585;DHT22;25278;53.674;10.014;2022-07-18T19:32:00;24.20;98.30
39585;DHT22;25278;53.674;10.014;2022-07-18T19:34:25;24.00;99.60
39585;DHT22;25278;53.674;10.014;2022-07-18T19:36:51;23.90;99.90
39585;DHT22;25278;53.674;10.014;2022-07-18T19:39:16;23.80;99.90
39585;DHT22;25278;53.674;10.014;2022-07-18T19:41:42;23.60;99.90
39585;DHT22;25278;53.674;10.014;2022-07-18T19:44:10;23.50;99.90
39585;DHT22;25278;53.674;10.014;2022-07-18T19:46:36;23.30;99.90
39585;DHT22;25278;53.674;10.014;2022-07-18T19:49:01;23.10;99.90
39585;DHT22;25278;53.674;10.014;2022-07-18T19:51:27;23.00;99.90
39585;DHT22;25278;53.674;10.014;2022-07-18T19:53:52;22.80;99.90
39585;DHT22;25278;53.674;10.014;2022-07-18T19:56:18;22.70;99.90
39585;DHT22;25278;53.674;10.014;2022-07-18T19:58:43;22.60;99.90
39585;DHT22;25278;53.674;10.014;2022-07-18T20:01:11;22.50;99.90
39585;DHT22;25278;53.674;10.014;2022-07-18T20:03:37;22.40;99.90
39585;DHT22;25278;53.674;10.014;2022-07-18T20:06:02;22.30;99.90
39585;DHT22;25278;53.674;10.014;2022-07-18T20:08:28;22.20;99.90
39585;DHT22;25278;53.674;10.014;2022-07-18T20:10:54;22.10;99.90
39585;DHT22;25278;53.674;10.014;2022-07-18T20:13:19;21.90;99.90
39585;DHT22;25278;53.674;10.014;2022-07-18T20:15:45;21.70;99.90
39585;DHT22;25278;53.674;10.014;2022-07-18T20:18:10;21.60;99.90
39585;DHT22;25278;53.674;10.014;2022-07-18T20:20:36;21.50;99.90
39585;DHT22;25278;53.674;10.014;2022-07-18T20:23:02;21.40;99.90
39585;DHT22;25278;53.674;10.014;2022-07-18T20:25:28;21.30;99.90
39585;DHT22;25278;53.674;10.014;2022-07-18T20:27:54;21.20;99.90
39585;DHT22;25278;53.674;10.014;2022-07-18T20:30:20;21.10;99.90
39585;DHT22;25278;53.674;10.014;2022-07-18T20:32:45;21.00;99.90
39585;DHT22;25278;53.674;10.014;2022-07-18T20:35:12;20.90;99.90
39585;DHT22;25278;53.674;10.014;2022-07-18T20:37:41;20.80;99.90
39585;DHT22;25278;53.674;10.014;2022-07-18T20:40:07;20.80;99.90
39585;DHT22;25278;53.674;10.014;2022-07-18T20:42:33;20.70;99.90
39585;DHT22;25278;53.674;10.014;2022-07-18T20:44:58;20.60;99.90
39585;DHT22;25278;53.674;10.014;2022-07-18T20:47:23;20.60;99.90
39585;DHT22;25278;53.674;10.014;2022-07-18T20:49:50;20.40;99.90
39585;DHT22;25278;53.674;10.014;2022-07-18T20:52:16;20.40;99.90
39585;DHT22;25278;53.674;10.014;2022-07-18T20:54:41;20.30;99.90
39585;DHT22;25278;53.674;10.014;2022-07-18T20:57:07;20.20;99.90
39585;DHT22;25278;53.674;10.014;2022-07-18T20:59:32;20.20;99.90
39585;DHT22;25278;53.674;10.014;2022-07-18T21:01:58;20.20;99.90
39585;DHT22;25278;53.674;10.014;2022-07-18T21:04:23;20.10;99.90
39585;DHT22;25278;53.674;10.014;2022-07-18T21:06:49;20.00;99.90
39585;DHT22;25278;53.674;10.014;2022-07-18T21:09:14;20.00;99.90
39585;DHT22;25278;53.674;10.014;2022-07-18T21:11:41;19.90;99.90
39585;DHT22;25278;53.674;10.014;2022-07-18T21:14:06;19.80;99.90
39585;DHT22;25278;53.674;10.014;2022-07-18T21:16:50;19.70;99.90
39585;DHT22;25278;53.674;10.014;2022-07-18T21:19:16;19.70;99.90
39585;DHT22;25278;53.674;10.014;2022-07-18T21:21:41;19.60;99.90
39585;DHT22;25278;53.674;10.014;2022-07-18T21:24:12;19.40;99.90
39585;DHT22;25278;53.674;10.014;2022-07-18T21:26:38;19.30;99.90
39585;DHT22;25278;53.674;10.014;2022-07-18T21:29:03;19.10;99.90
39585;DHT22;25278;53.674;10.014;2022-07-18T21:31:29;19.10;99.90
39585;DHT22;25278;53.674;10.014;2022-07-18T21:33:54;19.10;99.90